Alamo, California
Current Conditions -  °F | °C
As of 10:53 AM on Saturday 25 Oct 2014 (Local Time) from KCCR Reporting Station
Overcast Overcast  
Wind Chill: 18°   Ceiling: 3000
Heat Index: 18°   Visibility: 10mi
Dew Point: 14°   Wind: 14mph
Humidity: 78%   Direction: 200°SSW
Pressure: 30.04"   Gusts: NA
Location:  37.85°N, 122.03°W
Report Text: KCCR 251753Z 20012KT 10SM FEW024 BKN030 OVC050 18/14 A3004 RMK AO2 SLP158 60014 T01830144 10189 20150 51022
Loading
Personal Weather Stations






























Interactive Weather Map
Tropical Storm Tracking
New forecast layout! Learn more

10-Day Weather Forecast

Advertisements
Track Severe Weather on mobile